Time;durP1;ratioP1;P1;durP2;ratioP2;P2;SDS_P1;SDS_P2;PMS_P1;PMS_P2;Temp;Humidity;BMP_temperature;BMP_pressure;BME280_temperature;BME280_humidity;BME280_pressure;Samples;Min_cycle;Max_cycle;Signal;HPM_P1;HPM_P2
2021/10/29 00:01:35;;;;;;;4.63;1.40;;;29.20;81.80;;;;;;5074388;28;20285;-74
2021/10/29 00:04:02;;;;;;;5.53;1.83;;;29.30;82.10;;;;;;5073785;28;20183;-74
2021/10/29 00:06:30;;;;;;;8.43;1.50;;;29.20;81.90;;;;;;5074450;28;20321;-73
2021/10/29 00:08:58;;;;;;;4.10;2.00;;;29.20;81.90;;;;;;5072542;28;20187;-74
2021/10/29 00:11:25;;;;;;;8.57;1.53;;;29.00;81.90;;;;;;5072433;28;20618;-70
2021/10/29 00:13:52;;;;;;;4.57;0.97;;;28.90;82.20;;;;;;5073014;28;20214;-72
2021/10/29 00:16:20;;;;;;;9.23;1.47;;;28.90;82.70;;;;;;5073860;28;20237;-73
2021/10/29 00:18:47;;;;;;;3.07;1.50;;;28.90;82.60;;;;;;5073682;28;20211;-73
2021/10/29 00:21:14;;;;;;;3.60;1.60;;;28.90;82.90;;;;;;5073882;28;20171;-72
2021/10/29 00:23:42;;;;;;;4.27;1.37;;;28.90;82.90;;;;;;5073227;28;20245;-71
2021/10/29 00:26:09;;;;;;;7.80;1.80;;;29.20;82.80;;;;;;5073570;28;20545;-72
2021/10/29 00:28:36;;;;;;;3.90;1.57;;;29.30;82.70;;;;;;5072729;28;20179;-74
2021/10/29 00:31:04;;;;;;;3.20;1.77;;;29.20;82.50;;;;;;5073521;28;20179;-72
2021/10/29 00:33:31;;;;;;;3.77;1.40;;;29.10;82.70;;;;;;5069403;28;20287;-75
2021/10/29 00:35:58;;;;;;;3.20;1.40;;;29.20;83.10;;;;;;5073452;28;20237;-73
2021/10/29 00:38:26;;;;;;;6.20;1.20;;;29.20;83.00;;;;;;5071989;28;20338;-71
2021/10/29 00:40:53;;;;;;;2.40;1.17;;;29.20;83.00;;;;;;5073135;28;20201;-73
2021/10/29 00:43:21;;;;;;;4.23;1.80;;;29.10;82.80;;;;;;5073017;28;20190;-73
2021/10/29 00:45:48;;;;;;;7.40;2.13;;;29.10;83.60;;;;;;5073252;28;20178;-74
2021/10/29 00:48:16;;;;;;;7.80;1.47;;;29.60;83.20;;;;;;5073043;28;20194;-74
2021/10/29 00:50:44;;;;;;;4.57;1.30;;;30.10;82.30;;;;;;5073375;28;20187;-74
2021/10/29 00:53:11;;;;;;;4.10;0.93;;;30.60;81.70;;;;;;5071878;28;20547;-73
2021/10/29 00:55:39;;;;;;;3.03;1.10;;;30.80;80.90;;;;;;5071729;28;20179;-73
2021/10/29 00:58:06;;;;;;;3.27;1.27;;;30.90;81.00;;;;;;5072906;28;20232;-72
2021/10/29 01:00:33;;;;;;;3.13;1.30;;;31.00;80.20;;;;;;5072883;28;20191;-73
2021/10/29 01:03:01;;;;;;;6.83;1.10;;;30.90;80.50;;;;;;5072607;28;20171;-73
2021/10/29 01:05:30;;;;;;;4.27;1.90;;;31.10;80.40;;;;;;5072833;28;20206;-73
2021/10/29 01:07:59;;;;;;;5.90;1.63;;;31.30;80.40;;;;;;5072445;28;20180;-72
2021/10/29 01:10:30;;;;;;;2.38;1.27;;;31.60;80.20;;;;;;5072954;28;20182;-72
2021/10/29 01:12:58;;;;;;;8.17;1.27;;;31.60;79.90;;;;;;5072602;28;20285;-72
2021/10/29 01:15:26;;;;;;;5.23;1.77;;;31.50;79.70;;;;;;5069533;28;20641;-73
2021/10/29 01:17:54;;;;;;;4.73;1.47;;;31.60;79.70;;;;;;5072435;28;20547;-76
2021/10/29 01:20:23;;;;;;;3.03;1.10;;;31.70;79.60;;;;;;5072839;28;20168;-70
2021/10/29 01:22:51;;;;;;;3.22;1.08;;;32.00;78.90;;;;;;5073047;28;20182;-72
2021/10/29 01:25:19;;;;;;;5.40;1.10;;;32.10;79.20;;;;;;5072487;28;20171;-75
2021/10/29 01:27:47;;;;;;;4.22;1.30;;;32.40;78.60;;;;;;5072267;28;20225;-75
2021/10/29 01:30:15;;;;;;;7.10;1.40;;;32.30;78.30;;;;;;5072457;28;20629;-75
2021/10/29 01:32:43;;;;;;;3.92;1.17;;;32.40;78.70;;;;;;5072518;28;20669;-73
2021/10/29 01:35:12;;;;;;;6.55;1.25;;;32.50;78.40;;;;;;5072534;28;20186;-72
2021/10/29 01:37:41;;;;;;;6.63;1.35;;;32.70;78.50;;;;;;5072492;28;20545;-74
2021/10/29 01:40:11;;;;;;;4.03;1.38;;;32.70;78.20;;;;;;5072258;28;20268;-73
2021/10/29 01:42:38;;;;;;;8.48;1.40;;;32.80;77.50;;;;;;5072274;28;20175;-72
2021/10/29 01:45:07;;;;;;;10.60;1.63;;;33.00;77.30;;;;;;5072566;28;20174;-77
2021/10/29 01:47:35;;;;;;;3.17;1.08;;;32.90;77.40;;;;;;5072441;28;20211;-75
2021/10/29 01:50:05;;;;;;;5.38;1.40;;;33.10;77.30;;;;;;5072579;28;20179;-74
2021/10/29 01:52:32;;;;;;;5.00;1.27;;;33.40;76.90;;;;;;5072199;28;20207;-70
2021/10/29 01:55:00;;;;;;;8.75;1.65;;;33.60;75.60;;;;;;5072416;28;20225;-72
2021/10/29 01:57:27;;;;;;;3.67;1.13;;;33.50;75.00;;;;;;5072142;28;20274;-72
2021/10/29 01:59:54;;;;;;;7.38;1.35;;;33.60;74.80;;;;;;5072255;28;20167;-72
2021/10/29 02:02:22;;;;;;;5.90;1.35;;;33.70;74.60;;;;;;5072350;28;20640;-73
2021/10/29 02:04:49;;;;;;;7.20;1.30;;;34.10;73.80;;;;;;5071854;28;20190;-75
2021/10/29 02:07:16;;;;;;;9.32;1.50;;;33.70;73.30;;;;;;5072287;28;20574;-72
2021/10/29 02:09:44;;;;;;;10.48;1.27;;;33.70;73.50;;;;;;5071900;28;20179;-72
2021/10/29 02:12:11;;;;;;;3.83;1.45;;;34.20;73.90;;;;;;5071745;28;20252;-77
2021/10/29 02:14:41;;;;;;;4.25;1.48;;;34.00;73.10;;;;;;5070280;28;20218;-73
2021/10/29 02:17:09;;;;;;;3.53;1.20;;;34.00;73.40;;;;;;5071693;28;20225;-72
2021/10/29 02:19:36;;;;;;;10.45;2.78;;;34.00;73.00;;;;;;5071826;28;20530;-73
2021/10/29 02:22:04;;;;;;;5.55;1.10;;;34.20;73.20;;;;;;5072444;28;20270;-73
2021/10/29 02:24:34;;;;;;;2.28;1.00;;;34.20;72.30;;;;;;5072256;28;20175;-74
2021/10/29 02:27:02;;;;;;;3.25;1.52;;;34.10;72.10;;;;;;5072098;28;20520;-72
2021/10/29 02:29:30;;;;;;;3.50;1.15;;;34.10;71.80;;;;;;5070649;28;20214;-76
2021/10/29 02:31:58;;;;;;;6.68;1.40;;;34.00;71.80;;;;;;5071440;28;20645;-71
2021/10/29 02:34:25;;;;;;;7.28;1.13;;;34.10;71.70;;;;;;5068585;28;20256;-71
2021/10/29 02:36:52;;;;;;;12.15;1.63;;;34.40;71.80;;;;;;5071391;28;20206;-70
2021/10/29 02:39:20;;;;;;;6.10;1.40;;;33.90;71.70;;;;;;5070048;28;20179;-71
2021/10/29 02:41:47;;;;;;;11.38;1.50;;;34.00;72.10;;;;;;5070703;28;20270;-72
2021/10/29 02:44:15;;;;;;;6.75;1.30;;;34.10;72.00;;;;;;5071746;28;20183;-75
2021/10/29 02:46:42;;;;;;;7.43;1.27;;;34.20;71.80;;;;;;5071706;28;20531;-75
2021/10/29 02:49:10;;;;;;;6.10;1.40;;;34.20;71.30;;;;;;5071563;28;20175;-74
2021/10/29 02:51:37;;;;;;;4.47;1.20;;;33.60;72.60;;;;;;5071774;28;20668;-74
2021/10/29 02:54:05;;;;;;;9.73;1.48;;;33.10;72.80;;;;;;5071770;28;20218;-72
2021/10/29 02:56:32;;;;;;;8.95;1.42;;;32.80;73.50;;;;;;5071819;28;20184;-74
2021/10/29 02:58:59;;;;;;;5.28;1.50;;;32.60;73.40;;;;;;5071768;28;20175;-73
2021/10/29 03:01:27;;;;;;;6.90;1.42;;;33.40;72.70;;;;;;5071570;28;20184;-76
2021/10/29 03:03:54;;;;;;;5.43;1.60;;;33.80;72.10;;;;;;5070978;28;20183;-72
2021/10/29 03:06:21;;;;;;;4.50;1.27;;;34.00;71.40;;;;;;5071903;28;20174;-74
2021/10/29 03:08:49;;;;;;;8.23;2.05;;;33.90;71.40;;;;;;5071625;28;20187;-78
2021/10/29 03:11:16;;;;;;;6.30;1.40;;;34.30;71.30;;;;;;5071751;28;20172;-77
2021/10/29 03:13:44;;;;;;;4.63;1.13;;;34.40;70.80;;;;;;5070818;28;20226;-72
2021/10/29 03:16:11;;;;;;;6.78;1.60;;;33.80;71.00;;;;;;5075153;28;20255;-71
2021/10/29 03:18:41;;;;;;;11.55;1.50;;;34.00;71.70;;;;;;5064121;28;20265;-72
2021/10/29 03:21:09;;;;;;;5.38;1.40;;;34.50;71.00;;;;;;5074147;28;20206;-74
2021/10/29 03:23:37;;;;;;;8.90;1.85;;;34.70;70.50;;;;;;5074608;28;20244;-72
2021/10/29 03:26:04;;;;;;;12.18;1.83;;;34.90;69.90;;;;;;5074464;28;20536;-72
2021/10/29 03:28:32;;;;;;;11.43;1.70;;;34.80;69.40;;;;;;5074448;28;20186;-76
2021/10/29 03:30:59;;;;;;;6.82;1.58;;;34.60;69.00;;;;;;5072953;28;20677;-76
2021/10/29 03:33:26;;;;;;;10.48;2.17;;;35.20;68.60;;;;;;5090918;28;20225;-74
2021/10/29 03:35:54;;;;;;;18.00;1.90;;;35.00;68.30;;;;;;5065608;28;20592;-71
2021/10/29 03:41:09;;;;;;;15.20;2.05;;;33.10;69.40;;;;;;5075926;28;20231;-72
2021/10/29 03:43:43;;;;;;;14.70;1.88;;;33.60;69.40;;;;;;5078067;28;20262;-73
2021/10/29 03:46:17;;;;;;;12.55;2.25;;;33.70;68.70;;;;;;5072939;28;20175;-69
2021/10/29 03:51:22;;;;;;;15.48;1.92;;;33.20;68.30;;;;;;5074677;28;20170;-70
2021/10/29 03:56:21;;;;;;;14.45;2.42;;;32.90;66.20;;;;;;5072851;28;20183;-72
2021/10/29 03:58:52;;;;;;;9.40;1.60;;;33.00;66.40;;;;;;5071114;28;20206;-72
2021/10/29 04:01:20;;;;;;;22.17;2.05;;;32.70;65.10;;;;;;5071663;28;20684;-70
2021/10/29 04:03:48;;;;;;;11.80;2.13;;;32.70;64.80;;;;;;5069828;28;20559;-70
2021/10/29 04:06:16;;;;;;;11.43;1.95;;;32.90;64.70;;;;;;5073400;28;20220;-72
2021/10/29 04:08:44;;;;;;;21.35;2.40;;;33.00;63.80;;;;;;5073420;28;20179;-70
2021/10/29 04:11:12;;;;;;;16.48;1.85;;;32.70;64.30;;;;;;5073732;28;20171;-72
2021/10/29 04:13:43;;;;;;;8.73;1.98;;;32.90;64.20;;;;;;5072525;28;20283;-73
2021/10/29 04:16:11;;;;;;;15.07;1.77;;;33.00;62.40;;;;;;5068672;28;20258;-73
2021/10/29 04:18:38;;;;;;;15.15;2.05;;;33.10;62.70;;;;;;5072059;28;20667;-71
2021/10/29 04:21:06;;;;;;;14.30;1.67;;;33.20;63.00;;;;;;5073385;28;20171;-72
2021/10/29 04:23:34;;;;;;;14.18;1.65;;;33.00;63.50;;;;;;5072592;28;20187;-74
2021/10/29 04:26:02;;;;;;;20.15;2.30;;;32.50;63.00;;;;;;5072215;28;20171;-72
2021/10/29 04:28:29;;;;;;;15.90;2.08;;;32.70;63.00;;;;;;5072647;28;20190;-73
2021/10/29 04:31:00;;;;;;;14.65;1.73;;;32.50;61.20;;;;;;5073945;28;20195;-74
2021/10/29 04:33:27;;;;;;;14.73;1.98;;;32.80;62.60;;;;;;5071657;28;20306;-73
2021/10/29 04:35:55;;;;;;;20.52;2.30;;;33.10;61.40;;;;;;5053939;28;20184;-75
2021/10/29 04:38:22;;;;;;;13.20;2.10;;;33.10;59.80;;;;;;5063656;28;20179;-75
2021/10/29 04:40:51;;;;;;;17.90;2.63;;;33.30;59.30;;;;;;5072739;28;20586;-73
2021/10/29 04:43:18;;;;;;;15.88;2.13;;;32.80;57.90;;;;;;5073277;28;20211;-74
2021/10/29 04:45:46;;;;;;;17.00;2.30;;;32.70;57.20;;;;;;5073506;28;20179;-73
2021/10/29 04:48:14;;;;;;;13.73;1.55;;;32.30;57.20;;;;;;5073408;28;20884;-72
2021/10/29 04:50:42;;;;;;;14.65;2.40;;;32.10;56.70;;;;;;5073497;28;20175;-72
2021/10/29 04:53:11;;;;;;;22.73;2.30;;;32.30;57.10;;;;;;5073310;28;20195;-71
2021/10/29 04:55:39;;;;;;;18.02;2.05;;;32.80;57.50;;;;;;5073475;28;20175;-70
2021/10/29 04:58:07;;;;;;;21.52;2.50;;;32.30;58.00;;;;;;5073537;28;20175;-74
2021/10/29 05:00:35;;;;;;;17.00;2.03;;;32.20;58.60;;;;;;5073105;28;20187;-72
2021/10/29 05:03:05;;;;;;;15.93;2.35;;;32.30;58.10;;;;;;5072971;28;20171;-73
2021/10/29 05:05:35;;;;;;;26.33;2.80;;;32.40;58.60;;;;;;5070735;28;20176;-74
2021/10/29 05:08:05;;;;;;;11.57;1.58;;;32.80;58.30;;;;;;5065349;28;20206;-73
2021/10/29 05:10:33;;;;;;;14.02;1.98;;;32.30;58.30;;;;;;5070898;28;20219;-76
2021/10/29 05:13:00;;;;;;;27.80;2.10;;;32.30;58.00;;;;;;5068845;28;20360;-72
2021/10/29 05:15:28;;;;;;;18.27;2.58;;;31.90;57.10;;;;;;5072699;28;20625;-72
2021/10/29 05:17:56;;;;;;;20.58;1.90;;;32.00;57.30;;;;;;5070481;28;20660;-76
2021/10/29 05:20:23;;;;;;;19.45;2.17;;;32.40;57.10;;;;;;5072872;28;20235;-73
2021/10/29 05:22:50;;;;;;;16.73;2.58;;;32.30;56.80;;;;;;5072441;28;20186;-75
2021/10/29 05:25:18;;;;;;;17.85;2.55;;;32.00;56.40;;;;;;5072579;28;20305;-75
2021/10/29 05:27:45;;;;;;;18.05;2.10;;;32.10;57.50;;;;;;5072700;28;20185;-74
2021/10/29 05:30:13;;;;;;;16.20;2.13;;;32.50;56.40;;;;;;5086487;28;20177;-73
2021/10/29 05:32:40;;;;;;;13.48;2.20;;;32.70;55.80;;;;;;5078381;28;20574;-71
2021/10/29 05:35:08;;;;;;;14.70;2.30;;;32.40;55.50;;;;;;5071827;28;20171;-76
2021/10/29 05:37:36;;;;;;;14.90;2.28;;;32.40;55.90;;;;;;5070952;28;20274;-75
2021/10/29 05:40:05;;;;;;;16.33;1.63;;;32.00;55.70;;;;;;5071450;28;20183;-73
2021/10/29 05:42:36;;;;;;;21.48;2.47;;;32.20;55.50;;;;;;5072121;28;20175;-74
2021/10/29 05:45:07;;;;;;;20.35;2.30;;;31.90;55.90;;;;;;5072499;28;20649;-71
2021/10/29 05:47:36;;;;;;;9.38;1.50;;;31.60;56.00;;;;;;5072227;28;20578;-75
2021/10/29 05:50:05;;;;;;;13.43;1.55;;;32.10;55.60;;;;;;5071891;28;20188;-72
2021/10/29 05:52:36;;;;;;;17.00;2.00;;;31.90;55.20;;;;;;5072346;28;20176;-74
2021/10/29 05:57:54;;;;;;;13.27;1.60;;;31.20;56.10;;;;;;5071123;28;20183;-69
2021/10/29 06:00:32;;;;;;;13.68;1.83;;;32.10;55.80;;;;;;5070171;28;20175;-72
2021/10/29 06:03:06;;;;;;;9.10;1.55;;;31.60;55.40;;;;;;5072050;28;20198;-72
2021/10/29 06:05:34;;;;;;;10.57;1.35;;;31.30;55.90;;;;;;5067789;28;20645;-72
2021/10/29 06:08:01;;;;;;;14.57;1.85;;;31.90;56.20;;;;;;5071983;28;20191;-71
2021/10/29 06:10:29;;;;;;;16.15;2.10;;;32.00;56.20;;;;;;5072199;28;20196;-73
2021/10/29 06:12:56;;;;;;;15.93;1.77;;;31.80;55.50;;;;;;5070935;28;20743;-73
2021/10/29 06:15:24;;;;;;;16.40;2.05;;;31.30;55.90;;;;;;5071671;28;20174;-74
2021/10/29 06:17:52;;;;;;;14.47;2.00;;;31.80;55.90;;;;;;5071124;28;20182;-72
2021/10/29 06:20:21;;;;;;;14.27;1.85;;;31.70;55.90;;;;;;5072098;28;20229;-73
2021/10/29 06:22:53;;;;;;;14.60;2.00;;;31.60;55.70;;;;;;5071036;28;20186;-74
2021/10/29 06:25:24;;;;;;;13.80;1.60;;;31.70;55.50;;;;;;5071026;28;20190;-70
2021/10/29 06:30:43;;;;;;;13.52;1.75;;;31.50;55.30;;;;;;5067759;28;20641;-71
2021/10/29 06:33:12;;;;;;;9.23;1.47;;;31.80;55.10;;;;;;5071490;28;20217;-73
2021/10/29 06:35:43;;;;;;;9.52;1.58;;;31.60;53.70;;;;;;5065582;28;20183;-70
2021/10/29 06:38:12;;;;;;;10.85;1.58;;;31.30;54.20;;;;;;5071237;28;20759;-76
2021/10/29 06:40:43;;;;;;;11.77;2.38;;;31.40;54.10;;;;;;5070145;28;20597;-73
2021/10/29 06:43:21;;;;;;;6.93;1.10;;;31.60;54.20;;;;;;5070237;28;20202;-71
2021/10/29 07:00:20;;;;;;;19.77;1.47;;;30.90;52.30;;;;;;5068880;28;20190;-73
2021/10/29 07:40:27;;;;;;;11.23;1.20;;;27.70;53.90;;;;;;5070253;28;20274;-74
2021/10/29 07:45:26;;;;;;;7.03;1.00;;;27.50;54.20;;;;;;5073482;28;20168;-77
2021/10/29 07:47:56;;;;;;;10.07;1.10;;;27.30;54.50;;;;;;5072997;28;20222;-73
2021/10/29 07:50:24;;;;;;;14.37;1.10;;;27.20;54.90;;;;;;5063426;28;20194;-73
2021/10/29 07:52:54;;;;;;;3.03;1.13;;;27.10;55.00;;;;;;5073130;28;20222;-71
2021/10/29 07:55:23;;;;;;;13.47;1.27;;;27.10;55.50;;;;;;5073857;28;20532;-75
2021/10/29 07:57:51;;;;;;;6.63;1.00;;;27.00;55.60;;;;;;5073328;28;20187;-72
2021/10/29 08:00:20;;;;;;;6.47;1.10;;;26.80;55.50;;;;;;5073386;28;20537;-72
2021/10/29 08:02:52;;;;;;;7.90;1.47;;;26.80;55.80;;;;;;5071617;28;20275;-72
2021/10/29 08:05:20;;;;;;;9.43;0.90;;;26.70;55.90;;;;;;5073738;28;20270;-71
2021/10/29 08:07:51;;;;;;;4.60;0.70;;;26.70;56.10;;;;;;5074382;28;20645;-71
2021/10/29 08:10:19;;;;;;;11.80;1.70;;;26.60;56.30;;;;;;5065844;28;20175;-71
2021/10/29 08:12:46;;;;;;;14.43;1.20;;;26.50;56.30;;;;;;5070469;28;20215;-75
2021/10/29 08:15:14;;;;;;;9.77;0.80;;;26.40;56.40;;;;;;5073777;28;20186;-72
2021/10/29 08:17:42;;;;;;;9.10;1.17;;;26.20;56.50;;;;;;5071105;28;20183;-70
2021/10/29 08:20:13;;;;;;;4.70;1.00;;;26.20;57.10;;;;;;5071968;28;20191;-77
2021/10/29 08:22:41;;;;;;;4.27;0.60;;;26.10;57.20;;;;;;5080762;28;20174;-71
2021/10/29 08:25:10;;;;;;;6.67;0.80;;;26.00;57.20;;;;;;5068400;28;20184;-72
2021/10/29 08:27:38;;;;;;;3.70;0.90;;;26.00;57.40;;;;;;5068682;28;20232;-72
2021/10/29 08:30:08;;;;;;;3.07;1.07;;;25.90;57.30;;;;;;5085678;28;20220;-71
2021/10/29 08:32:37;;;;;;;4.33;0.60;;;25.80;57.40;;;;;;5083995;28;20178;-74
2021/10/29 08:35:06;;;;;;;3.93;0.80;;;25.80;57.30;;;;;;5070248;28;20535;-74
2021/10/29 08:37:35;;;;;;;7.87;0.90;;;25.70;57.50;;;;;;5072643;28;20202;-74
2021/10/29 08:40:05;;;;;;;8.10;0.87;;;25.70;57.40;;;;;;5085372;28;20187;-73
2021/10/29 08:42:33;;;;;;;5.17;0.70;;;25.60;57.60;;;;;;5076391;28;20191;-71
2021/10/29 08:45:06;;;;;;;6.30;0.70;;;25.50;57.40;;;;;;5073693;28;20187;-73
2021/10/29 08:47:36;;;;;;;5.10;0.83;;;25.50;57.60;;;;;;5073511;28;20601;-72
2021/10/29 08:50:05;;;;;;;4.00;0.60;;;25.50;57.70;;;;;;5073109;28;20190;-76
2021/10/29 08:52:33;;;;;;;7.37;0.90;;;25.40;58.00;;;;;;5073803;28;20182;-72
2021/10/29 08:55:04;;;;;;;14.30;1.90;;;25.40;57.60;;;;;;5067607;28;20332;-72
2021/10/29 08:57:31;;;;;;;7.17;1.00;;;25.30;57.70;;;;;;5073060;28;20195;-73
2021/10/29 08:59:59;;;;;;;3.93;0.80;;;25.20;57.90;;;;;;5072927;28;20179;-73
2021/10/29 09:02:35;;;;;;;2.37;0.50;;;25.20;57.70;;;;;;5078945;28;20304;-71
2021/10/29 09:08:27;;;;;;;3.13;0.50;;;25.20;57.70;;;;;;5029548;28;20183;-71
2021/10/29 09:16:46;;;;;;;2.10;0.60;;;25.10;57.80;;;;;;5080710;28;20535;-72
2021/10/29 09:33:07;;;;;;;0.87;0.47;;;24.80;58.10;;;;;;5072995;28;20272;-72
2021/10/29 09:35:38;;;;;;;5.53;0.73;;;24.80;58.10;;;;;;5073344;28;20550;-74
2021/10/29 09:38:12;;;;;;;3.47;0.60;;;24.80;58.30;;;;;;5071897;28;20178;-71
2021/10/29 09:40:57;;;;;;;2.87;0.60;;;24.70;58.30;;;;;;5072517;28;20194;-70
2021/10/29 09:43:25;;;;;;;4.07;0.83;;;24.70;58.60;;;;;;5079107;28;20185;-73
2021/10/29 09:46:15;;;;;;;1.50;0.50;;;24.60;58.80;;;;;;5082586;28;20175;-74
2021/10/29 09:48:45;;;;;;;4.77;1.17;;;24.60;59.10;;;;;;5072213;28;20198;-72
2021/10/29 09:51:19;;;;;;;5.97;1.10;;;24.50;58.90;;;;;;5072072;28;20513;-73
2021/10/29 09:53:59;;;;;;;3.30;0.50;;;24.50;59.10;;;;;;5071430;28;20578;-71
2021/10/29 09:59:00;;;;;;;3.00;0.67;;;24.40;59.80;;;;;;5073143;28;20187;-70
2021/10/29 10:01:28;;;;;;;2.70;0.40;;;24.30;59.80;;;;;;5084123;28;20275;-73
2021/10/29 10:04:00;;;;;;;4.63;0.60;;;24.30;59.90;;;;;;5073413;28;20257;-70
2021/10/29 10:06:31;;;;;;;3.03;0.70;;;24.20;60.00;;;;;;5073100;28;20214;-72
2021/10/29 10:09:04;;;;;;;3.10;0.50;;;24.20;60.20;;;;;;5072797;28;20676;-71
2021/10/29 10:11:34;;;;;;;3.40;0.77;;;24.10;60.30;;;;;;5073026;28;20183;-71
2021/10/29 10:14:02;;;;;;;4.37;1.07;;;24.10;60.60;;;;;;5071439;28;20257;-72
2021/10/29 10:16:34;;;;;;;1.30;0.50;;;24.00;60.80;;;;;;5072203;28;20179;-71
2021/10/29 10:19:01;;;;;;;1.43;0.63;;;23.90;61.00;;;;;;5079653;28;20183;-72
2021/10/29 10:21:37;;;;;;;1.63;0.73;;;23.90;61.30;;;;;;5076672;28;20546;-71
2021/10/29 10:24:12;;;;;;;4.03;0.63;;;23.80;61.40;;;;;;5071775;28;20190;-71
2021/10/29 10:44:17;;;;;;;2.93;1.00;;;23.30;63.20;;;;;;5002543;28;20745;-72
2021/10/29 10:46:51;;;;;;;4.07;1.00;;;23.20;63.50;;;;;;5063259;28;20906;-71
2021/10/29 10:49:21;;;;;;;3.03;1.20;;;23.20;63.50;;;;;;5080314;28;20254;-72
2021/10/29 10:52:16;;;;;;;5.73;0.97;;;23.20;63.90;;;;;;5088767;28;20182;-73
2021/10/29 10:54:50;;;;;;;2.23;0.73;;;23.20;63.80;;;;;;5072079;28;20703;-71
2021/10/29 10:57:42;;;;;;;3.13;0.70;;;23.20;63.40;;;;;;5071772;28;20182;-72
2021/10/29 11:11:21;;;;;;;1.43;0.60;;;23.10;64.10;;;;;;5074785;28;20191;-72
2021/10/29 11:13:56;;;;;;;2.03;0.60;;;23.00;64.40;;;;;;5078188;28;20218;-72
2021/10/29 11:16:40;;;;;;;1.80;0.73;;;23.00;64.50;;;;;;5058165;28;20179;-72
2021/10/29 11:19:32;;;;;;;3.60;0.60;;;22.90;64.70;;;;;;5068865;28;20664;-72
2021/10/29 11:21:59;;;;;;;3.37;0.50;;;22.90;65.10;;;;;;5066744;28;20176;-72
2021/10/29 11:24:33;;;;;;;1.23;0.80;;;22.80;65.20;;;;;;5075202;28;20519;-72
2021/10/29 11:27:12;;;;;;;3.60;0.53;;;22.80;65.50;;;;;;5060202;28;20178;-72
2021/10/29 11:30:09;;;;;;;8.67;1.00;;;22.80;65.90;;;;;;5070276;28;20542;-73
2021/10/29 11:32:55;;;;;;;3.67;1.33;;;22.70;66.00;;;;;;5071070;28;20175;-72
2021/10/29 11:35:22;;;;;;;4.23;0.70;;;22.60;66.20;;;;;;5071279;28;20232;-71
2021/10/29 11:37:50;;;;;;;1.07;0.40;;;22.60;66.70;;;;;;5067444;28;20179;-71
2021/10/29 11:40:19;;;;;;;1.17;0.50;;;22.50;66.70;;;;;;5062642;28;20615;-71
2021/10/29 11:42:57;;;;;;;3.47;0.83;;;22.50;66.80;;;;;;5074337;28;20207;-71
2021/10/29 11:45:36;;;;;;;3.27;0.80;;;22.40;67.20;;;;;;5075790;28;20175;-74
2021/10/29 11:48:04;;;;;;;1.17;0.50;;;22.30;67.70;;;;;;5075457;28;20187;-72
2021/10/29 11:50:31;;;;;;;2.50;0.70;;;22.30;67.40;;;;;;5074350;28;20183;-72
2021/10/29 11:53:01;;;;;;;0.97;0.50;;;22.30;67.60;;;;;;5074853;28;20199;-72
2021/10/29 11:55:55;;;;;;;0.90;0.40;;;22.30;67.80;;;;;;5074511;28;20187;-73
2021/10/29 11:58:36;;;;;;;0.67;0.37;;;22.30;67.50;;;;;;5074239;28;20251;-72
2021/10/29 12:09:27;;;;;;;1.47;0.40;;;22.30;68.20;;;;;;5075920;28;20324;-71
2021/10/29 12:12:08;;;;;;;1.30;0.37;;;22.20;68.30;;;;;;5074212;28;20302;-73
2021/10/29 12:14:39;;;;;;;0.57;0.40;;;22.20;68.70;;;;;;5075230;28;20215;-73
2021/10/29 12:17:09;;;;;;;3.90;0.70;;;22.20;68.50;;;;;;5075400;28;20330;-73
2021/10/29 12:19:40;;;;;;;0.20;0.20;;;22.10;68.80;;;;;;5074225;28;20261;-71
2021/10/29 12:25:02;;;;;;;2.30;0.50;;;22.10;69.30;;;;;;5077445;28;20187;-72
2021/10/29 12:27:34;;;;;;;0.50;0.30;;;22.00;69.50;;;;;;5067319;28;20656;-70
2021/10/29 12:30:18;;;;;;;1.10;0.50;;;22.00;69.70;;;;;;5067656;28;20191;-72
2021/10/29 12:53:41;;;;;;;3.23;0.43;;;21.40;71.00;;;;;;5073700;28;20214;-72
2021/10/29 12:59:17;;;;;;;3.83;0.40;;;21.30;71.40;;;;;;5073601;28;20377;-73
2021/10/29 13:01:59;;;;;;;1.70;0.40;;;21.20;71.40;;;;;;5073667;28;20179;-73
2021/10/29 13:04:43;;;;;;;1.33;0.60;;;21.20;71.60;;;;;;5078305;28;20190;-73
2021/10/29 13:07:12;;;;;;;3.27;0.40;;;21.10;72.10;;;;;;5068197;28;20191;-72
2021/10/29 13:09:40;;;;;;;0.40;0.40;;;21.10;72.10;;;;;;5073236;28;20539;-74
2021/10/29 13:12:27;;;;;;;3.50;0.47;;;21.00;72.30;;;;;;5071764;28;20226;-72
2021/10/29 13:14:59;;;;;;;1.43;0.40;;;21.00;72.40;;;;;;5069312;28;20272;-72
2021/10/29 13:17:32;;;;;;;4.63;0.40;;;21.00;72.60;;;;;;5074264;28;20198;-73
2021/10/29 13:27:41;;;;;;;2.93;0.50;;;20.80;72.90;;;;;;5073228;28;20206;-72
2021/10/29 13:35:49;;;;;;;1.60;0.40;;;20.60;73.20;;;;;;5070989;28;20238;-74
2021/10/29 13:50:13;;;;;;;4.43;0.77;;;20.70;73.60;;;;;;5073082;28;20262;-73
2021/10/29 13:52:28;;;;;;;0.50;0.40;;;20.40;73.00;;;;;;5072336;28;20182;-73
2021/10/29 13:55:17;;;;;;;2.20;0.40;;;20.40;73.40;;;;;;5063448;28;20268;-74
2021/10/29 14:30:15;;;;;;;1.40;0.40;;;20.30;73.80;;;;;;5072913;28;20186;-73
2021/10/29 14:33:07;;;;;;;0.60;0.40;;;20.30;74.00;;;;;;5070614;28;20588;-73
2021/10/29 14:35:37;;;;;;;1.23;0.50;;;20.20;74.10;;;;;;5092260;28;20561;-73
2021/10/29 14:38:54;;;;;;;3.43;0.53;;;20.10;74.50;;;;;;5085748;28;20174;-72
2021/10/29 14:40:58;;;;;;;0.80;0.30;;;20.10;74.30;;;;;;5071014;28;20202;-72
2021/10/29 14:46:42;;;;;;;3.27;0.30;;;20.00;74.50;;;;;;5081773;28;20179;-72
2021/10/29 14:49:01;;;;;;;1.60;0.30;;;20.00;74.30;;;;;;5067082;28;20671;-73
2021/10/29 15:03:07;;;;;;;2.83;0.40;;;19.80;74.20;;;;;;5068605;28;20316;-70
2021/10/29 15:27:44;;;;;;;1.83;0.50;;;19.30;76.30;;;;;;5081330;28;20224;-75
2021/10/29 15:30:30;;;;;;;1.23;0.40;;;19.20;76.80;;;;;;5075759;28;20645;-73
2021/10/29 15:44:05;;;;;;;1.40;0.60;;;18.90;77.80;;;;;;5075088;28;20267;-72
2021/10/29 15:51:52;;;;;;;3.13;0.33;;;18.70;77.90;;;;;;5074753;28;20179;-74
2021/10/29 15:54:20;;;;;;;2.60;0.47;;;18.70;77.90;;;;;;5073267;28;20568;-71
2021/10/29 15:56:55;;;;;;;0.73;0.40;;;18.70;77.80;;;;;;5074570;28;20180;-72
2021/10/29 16:01:56;;;;;;;2.00;0.33;;;18.60;77.30;;;;;;5074868;28;20183;-72
2021/10/29 16:18:10;;;;;;;0.73;0.43;;;18.50;75.30;;;;;;5075142;28;20271;-70
2021/10/29 16:20:38;;;;;;;1.70;0.40;;;18.40;74.70;;;;;;5075058;28;20544;-72
2021/10/29 16:23:05;;;;;;;1.40;0.60;;;18.40;74.80;;;;;;5072547;28;20183;-72
2021/10/29 16:25:37;;;;;;;1.03;0.30;;;18.30;74.80;;;;;;5075331;28;20580;-74
2021/10/29 16:28:08;;;;;;;0.23;0.20;;;18.40;74.50;;;;;;5074541;28;20600;-71
2021/10/29 16:30:36;;;;;;;0.80;0.43;;;18.40;73.90;;;;;;5072044;28;20724;-72
2021/10/29 16:33:07;;;;;;;1.03;0.40;;;18.40;74.00;;;;;;5072636;28;20202;-71
2021/10/29 16:35:39;;;;;;;0.93;0.50;;;18.40;73.40;;;;;;5074194;28;20257;-74
2021/10/29 16:38:09;;;;;;;4.93;0.40;;;18.40;73.20;;;;;;5071974;28;20537;-72
2021/10/29 16:40:37;;;;;;;0.40;0.40;;;18.50;72.90;;;;;;5073981;28;20180;-72
2021/10/29 16:43:07;;;;;;;2.57;0.40;;;18.50;72.80;;;;;;5076497;28;20265;-72
2021/10/29 16:45:43;;;;;;;1.17;0.40;;;18.40;72.90;;;;;;5054564;28;20180;-77
2021/10/29 16:48:11;;;;;;;1.93;0.50;;;18.40;72.80;;;;;;5066048;28;20175;-72
2021/10/29 16:50:38;;;;;;;3.73;0.30;;;18.40;72.80;;;;;;5073932;28;20174;-73
2021/10/29 16:53:06;;;;;;;0.37;0.37;;;18.40;72.60;;;;;;5073667;28;20199;-72
2021/10/29 16:55:34;;;;;;;0.73;0.30;;;18.40;72.60;;;;;;5073901;28;20709;-72
2021/10/29 16:58:01;;;;;;;0.43;0.30;;;18.40;72.60;;;;;;5073880;28;20174;-71
2021/10/29 17:00:29;;;;;;;2.57;0.47;;;18.30;73.00;;;;;;5073787;28;20547;-72
2021/10/29 17:02:56;;;;;;;1.80;0.43;;;18.50;73.00;;;;;;5073480;28;20183;-70
2021/10/29 17:05:23;;;;;;;0.43;0.30;;;18.70;72.70;;;;;;5073652;28;20244;-71
2021/10/29 17:07:51;;;;;;;0.30;0.30;;;18.80;72.80;;;;;;5066758;28;20194;-72
2021/10/29 17:10:20;;;;;;;1.80;0.40;;;18.50;73.50;;;;;;5073731;28;20237;-72
2021/10/29 17:12:48;;;;;;;0.87;0.33;;;18.40;74.40;;;;;;5072023;28;20334;-72
2021/10/29 17:15:17;;;;;;;2.83;0.40;;;18.20;75.10;;;;;;5072499;28;20186;-72
2021/10/29 17:17:46;;;;;;;0.63;0.30;;;18.10;75.90;;;;;;5073882;28;20175;-72
2021/10/29 17:20:16;;;;;;;1.77;0.47;;;18.00;76.40;;;;;;5073379;28;20171;-72
2021/10/29 17:22:44;;;;;;;1.07;0.43;;;17.90;76.80;;;;;;5073443;28;20195;-71
2021/10/29 17:25:14;;;;;;;1.63;0.30;;;17.90;76.80;;;;;;5073882;28;20571;-72
2021/10/29 17:27:42;;;;;;;2.57;0.50;;;17.80;76.50;;;;;;5073102;28;20279;-72
2021/10/29 17:30:13;;;;;;;3.07;0.80;;;17.80;76.50;;;;;;5073313;28;20245;-70
2021/10/29 17:32:46;;;;;;;3.77;0.40;;;17.70;76.00;;;;;;5073167;28;20539;-74
2021/10/29 17:35:14;;;;;;;1.10;0.30;;;17.70;76.20;;;;;;5072558;28;20245;-72
2021/10/29 17:37:42;;;;;;;3.17;0.50;;;17.70;76.50;;;;;;5072591;28;20178;-75
2021/10/29 17:40:11;;;;;;;3.50;0.43;;;17.70;76.50;;;;;;5073158;28;20189;-74
2021/10/29 17:42:38;;;;;;;2.33;0.47;;;17.60;76.70;;;;;;5070333;28;20227;-75